createdAt,value
2023-05-02T00:01:33.378Z,6.17
2023-05-02T00:04:02.893Z,5.10
2023-05-02T00:06:33.266Z,2.17
2023-05-02T00:09:04.185Z,5.10
2023-05-02T00:11:34.262Z,3.17
2023-05-02T00:14:03.690Z,3.40
2023-05-02T00:16:33.661Z,3.77
2023-05-02T00:19:04.113Z,2.73
2023-05-02T00:21:34.969Z,7.93
2023-05-02T00:24:06.149Z,2.83
2023-05-02T00:26:36.159Z,3.03
2023-05-02T00:29:06.536Z,4.63
2023-05-02T00:31:36.210Z,2.37
2023-05-02T00:34:06.298Z,3.70
2023-05-02T00:36:36.301Z,2.60
2023-05-02T00:39:06.620Z,2.57
2023-05-02T00:41:36.515Z,2.50
2023-05-02T00:44:07.201Z,6.47
2023-05-02T00:46:36.475Z,14.87
2023-05-02T00:49:05.940Z,2.43
2023-05-02T00:51:36.288Z,2.63
2023-05-02T00:54:07.777Z,2.40
2023-05-02T00:56:38.903Z,2.33
2023-05-02T00:59:10.241Z,2.37
2023-05-02T01:01:51.910Z,3.27
2023-05-02T01:04:40.337Z,3.20
2023-05-02T01:07:38.484Z,4.27
2023-05-02T01:10:24.896Z,5.93
2023-05-02T01:13:04.519Z,3.37
2023-05-02T01:15:39.919Z,5.80
2023-05-02T01:18:14.024Z,3.10
2023-05-02T01:20:46.102Z,4.63
2023-05-02T01:23:31.267Z,4.10
2023-05-02T01:26:21.016Z,2.13
2023-05-02T01:29:03.971Z,3.07
2023-05-02T01:31:38.930Z,5.60
2023-05-02T01:34:14.103Z,2.50
2023-05-02T01:36:47.236Z,4.87
2023-05-02T01:39:22.542Z,4.50
2023-05-02T01:41:54.261Z,4.23
2023-05-02T01:44:27.403Z,6.10
2023-05-02T01:47:00.152Z,3.93
2023-05-02T01:49:32.985Z,5.10
2023-05-02T01:52:11.661Z,3.70
2023-05-02T01:54:43.103Z,3.83
2023-05-02T01:57:14.119Z,3.27
2023-05-02T01:59:48.503Z,8.33
2023-05-02T02:02:18.839Z,7.07
2023-05-02T02:04:51.152Z,5.33
2023-05-02T02:07:21.659Z,6.17
2023-05-02T02:09:50.969Z,3.60
2023-05-02T02:12:28.668Z,3.37
2023-05-02T02:15:11.687Z,9.60
2023-05-02T02:17:49.530Z,6.23
2023-05-02T02:20:20.946Z,4.30
2023-05-02T02:22:51.435Z,4.20
2023-05-02T02:25:21.389Z,4.77
2023-05-02T02:27:51.717Z,3.77
2023-05-02T02:30:22.010Z,4.70
2023-05-02T02:32:52.870Z,5.80
2023-05-02T02:35:23.374Z,5.73
2023-05-02T02:38:05.660Z,5.27
2023-05-02T02:40:46.138Z,5.37
2023-05-02T02:43:35.335Z,5.20
2023-05-02T02:46:34.300Z,4.13
2023-05-02T02:49:24.065Z,5.63
2023-05-02T02:52:03.879Z,4.37
2023-05-02T02:54:45.296Z,4.93
2023-05-02T02:57:21.126Z,4.47
2023-05-02T03:00:03.622Z,4.30
2023-05-02T03:02:36.703Z,6.20
2023-05-02T03:05:11.520Z,4.53
2023-05-02T03:07:42.629Z,5.73
2023-05-02T03:10:12.495Z,4.30
2023-05-02T03:12:42.078Z,7.60
2023-05-02T03:15:31.296Z,5.33
2023-05-02T03:18:03.373Z,4.63
2023-05-02T03:20:33.272Z,6.50
2023-05-02T03:23:02.333Z,9.10
2023-05-02T03:25:31.734Z,6.70
2023-05-02T03:28:01.672Z,5.10
2023-05-02T03:30:30.751Z,6.07
2023-05-02T03:33:02.361Z,10.10
2023-05-02T03:35:31.753Z,7.50
2023-05-02T03:38:02.294Z,5.77
2023-05-02T03:40:32.233Z,9.93
2023-05-02T03:43:03.180Z,8.03
2023-05-02T03:45:32.535Z,9.63
2023-05-02T03:48:04.678Z,5.73
2023-05-02T03:50:34.222Z,7.67
2023-05-02T03:53:03.782Z,6.20
2023-05-02T03:55:33.754Z,11.67
2023-05-02T03:58:03.255Z,8.40
2023-05-02T04:00:35.180Z,8.07
2023-05-02T04:03:06.084Z,5.30
2023-05-02T04:05:36.461Z,11.70
2023-05-02T04:08:07.642Z,6.27
2023-05-02T04:10:38.177Z,9.20
2023-05-02T04:13:08.575Z,9.53
2023-05-02T04:15:37.146Z,6.90
2023-05-02T04:18:08.698Z,10.93
2023-05-02T04:20:38.830Z,11.40
2023-05-02T04:23:08.813Z,8.80
2023-05-02T04:25:39.370Z,11.10
2023-05-02T04:28:09.902Z,10.40
2023-05-02T04:30:40.088Z,9.43
2023-05-02T04:33:12.563Z,15.37
2023-05-02T04:35:43.976Z,11.20
2023-05-02T04:38:14.000Z,10.57
2023-05-02T04:40:44.380Z,11.80
2023-05-02T04:43:15.568Z,12.07
2023-05-02T04:45:45.199Z,10.67
2023-05-02T04:48:16.190Z,13.50
2023-05-02T04:50:47.469Z,12.30
2023-05-02T04:53:16.476Z,18.67
2023-05-02T04:55:46.064Z,16.40
2023-05-02T04:58:16.077Z,16.30
2023-05-02T05:00:45.042Z,19.43
2023-05-02T05:03:16.010Z,16.47
2023-05-02T05:05:44.985Z,15.40
2023-05-02T05:08:14.518Z,18.70
2023-05-02T05:10:45.009Z,23.50
2023-05-02T05:13:14.155Z,19.00
2023-05-02T05:15:44.601Z,28.63
2023-05-02T05:18:16.093Z,15.70
2023-05-02T05:20:46.611Z,19.87
2023-05-02T05:23:16.737Z,16.90
2023-05-02T05:25:47.249Z,17.73
2023-05-02T05:28:19.096Z,25.60
2023-05-02T05:30:48.947Z,18.90
2023-05-02T05:33:20.918Z,18.10
2023-05-02T05:35:50.275Z,24.07
2023-05-02T05:38:20.413Z,21.70
2023-05-02T05:40:52.435Z,17.90
2023-05-02T05:43:22.581Z,17.13
2023-05-02T05:45:54.417Z,21.73
2023-05-02T05:48:25.559Z,18.77
2023-05-02T05:50:54.955Z,21.00
2023-05-02T05:53:23.993Z,25.80
2023-05-02T05:55:53.410Z,28.10
2023-05-02T05:58:22.848Z,37.13
2023-05-02T06:00:52.919Z,35.83
2023-05-02T06:03:24.812Z,41.50
2023-05-02T06:05:55.374Z,36.80
2023-05-02T06:08:25.478Z,35.13
2023-05-02T06:10:55.528Z,29.60
2023-05-02T06:13:25.543Z,28.23
2023-05-02T06:15:56.585Z,29.13
2023-05-02T06:18:28.486Z,36.60
2023-05-02T06:20:59.071Z,38.20
2023-05-02T06:23:30.066Z,46.87
2023-05-02T06:26:02.482Z,42.20
2023-05-02T06:28:32.934Z,44.27
2023-05-02T06:31:04.308Z,33.67
2023-05-02T06:33:35.945Z,36.50
2023-05-02T06:36:07.258Z,33.90
2023-05-02T06:38:37.225Z,35.43
2023-05-02T06:41:06.843Z,43.03
2023-05-02T06:43:37.176Z,38.57
2023-05-02T06:46:07.842Z,36.23
2023-05-02T06:48:39.815Z,32.63
2023-05-02T06:51:09.644Z,32.17
2023-05-02T06:53:39.631Z,33.40
2023-05-02T06:56:10.217Z,27.43
2023-05-02T06:58:40.174Z,28.03
2023-05-02T07:01:09.651Z,28.53
2023-05-02T07:03:42.083Z,25.73
2023-05-02T07:06:11.492Z,27.87
2023-05-02T07:08:41.047Z,27.63
2023-05-02T07:11:09.934Z,29.00
2023-05-02T07:13:39.404Z,30.30
2023-05-02T07:16:10.570Z,23.67
2023-05-02T07:18:42.973Z,25.70
2023-05-02T07:21:12.931Z,25.33
2023-05-02T07:23:42.390Z,23.70
2023-05-02T07:26:12.891Z,26.40
2023-05-02T07:28:43.367Z,24.00
2023-05-02T07:31:12.231Z,26.73
2023-05-02T07:33:43.703Z,24.90
2023-05-02T07:36:13.732Z,44.37
2023-05-02T07:38:44.790Z,22.10
2023-05-02T07:41:16.324Z,22.90
2023-05-02T07:43:45.776Z,25.40
2023-05-02T07:46:15.190Z,22.03
2023-05-02T07:48:46.820Z,22.00
2023-05-02T07:51:16.372Z,15.80
2023-05-02T07:53:47.363Z,21.63
2023-05-02T07:56:17.391Z,17.80
2023-05-02T07:58:47.356Z,24.17
2023-05-02T08:01:18.309Z,18.77
2023-05-02T08:03:49.982Z,23.40
2023-05-02T08:06:19.893Z,22.67
2023-05-02T08:08:49.314Z,21.47
2023-05-02T08:11:18.792Z,20.47
2023-05-02T08:13:48.788Z,25.53
2023-05-02T08:16:18.596Z,20.87
2023-05-02T08:18:49.654Z,22.33
2023-05-02T08:21:20.362Z,20.20
2023-05-02T08:23:50.854Z,25.20
2023-05-02T08:26:22.479Z,20.70
2023-05-02T08:28:52.905Z,24.40
2023-05-02T08:31:22.482Z,17.97
2023-05-02T08:33:53.858Z,16.57
2023-05-02T08:36:24.333Z,17.33
2023-05-02T08:38:54.759Z,16.17
2023-05-02T08:41:25.741Z,24.13
2023-05-02T08:43:56.556Z,18.20
2023-05-02T08:46:27.718Z,18.90
2023-05-02T08:49:01.205Z,13.57
2023-05-02T08:51:33.661Z,12.33
2023-05-02T08:54:06.060Z,9.90
2023-05-02T08:56:36.564Z,11.77
2023-05-02T08:59:06.634Z,17.20
2023-05-02T09:01:37.576Z,15.20
2023-05-02T09:04:08.432Z,17.53
2023-05-02T09:06:39.850Z,8.00
2023-05-02T09:09:08.453Z,13.40
2023-05-02T09:11:38.432Z,7.43
2023-05-02T09:14:19.110Z,9.10
2023-05-02T09:16:50.074Z,9.60
2023-05-02T09:19:28.994Z,10.10
2023-05-02T09:22:03.469Z,10.53
2023-05-02T09:24:33.613Z,10.83
2023-05-02T09:27:05.424Z,7.33
2023-05-02T09:29:38.038Z,13.47
2023-05-02T09:32:08.073Z,17.17
2023-05-02T09:34:39.915Z,12.10
2023-05-02T09:37:13.209Z,10.97
2023-05-02T09:39:43.755Z,9.73
2023-05-02T09:42:13.270Z,11.30
2023-05-02T09:44:44.478Z,14.27
2023-05-02T09:47:28.528Z,12.10
2023-05-02T09:49:59.967Z,13.50
2023-05-02T09:52:30.425Z,11.40
2023-05-02T09:55:00.608Z,10.87
2023-05-02T09:57:42.861Z,9.33
2023-05-02T10:00:20.082Z,10.87
2023-05-02T10:02:52.233Z,11.80
2023-05-02T10:05:24.956Z,8.93
2023-05-02T10:07:58.368Z,10.17
2023-05-02T10:10:28.719Z,10.47
2023-05-02T10:12:58.726Z,8.53
2023-05-02T10:15:32.563Z,9.30
2023-05-02T10:18:05.101Z,29.40
2023-05-02T10:20:44.942Z,13.97
2023-05-02T10:23:18.036Z,10.63
2023-05-02T10:25:48.933Z,10.20
2023-05-02T10:28:18.622Z,11.10
2023-05-02T10:30:50.547Z,9.90
2023-05-02T10:33:20.863Z,11.50
2023-05-02T10:35:52.141Z,11.50
2023-05-02T10:38:24.722Z,14.33
2023-05-02T10:41:01.352Z,10.47
2023-05-02T10:43:38.471Z,10.43
2023-05-02T10:46:32.760Z,9.57
2023-05-02T10:49:08.640Z,9.80
2023-05-02T10:51:42.691Z,13.97
2023-05-02T10:54:22.609Z,12.43
2023-05-02T10:57:28.136Z,8.90
2023-05-02T11:00:17.036Z,7.70
2023-05-02T11:02:51.685Z,21.33
2023-05-02T11:05:21.298Z,9.50
2023-05-02T11:07:52.379Z,9.17
2023-05-02T11:10:29.928Z,5.33
2023-05-02T11:13:01.924Z,4.93
2023-05-02T11:15:57.853Z,5.27
2023-05-02T11:18:28.461Z,8.23
2023-05-02T11:21:30.352Z,5.73
2023-05-02T11:24:49.805Z,5.00
2023-05-02T11:27:44.557Z,51.67
2023-05-02T11:30:15.987Z,9.20
2023-05-02T11:33:17.841Z,7.73
2023-05-02T11:35:51.212Z,5.70
2023-05-02T11:38:23.238Z,7.80
2023-05-02T11:40:56.597Z,9.33
2023-05-02T11:43:29.961Z,5.20
2023-05-02T11:46:02.183Z,6.53
2023-05-02T11:48:33.151Z,8.00
2023-05-02T11:51:07.361Z,6.50
2023-05-02T11:53:43.662Z,5.80
2023-05-02T11:56:15.601Z,8.43
2023-05-02T11:58:46.988Z,3.67
2023-05-02T12:01:17.705Z,4.50
2023-05-02T12:03:48.990Z,5.33
2023-05-02T12:06:20.788Z,6.87
2023-05-02T12:08:55.560Z,6.07
2023-05-02T12:11:27.028Z,7.37
2023-05-02T12:13:57.665Z,4.73
2023-05-02T12:16:29.018Z,4.87
2023-05-02T12:18:59.622Z,5.83
2023-05-02T12:21:30.974Z,6.47
2023-05-02T12:24:01.016Z,6.83
2023-05-02T12:26:33.780Z,7.43
2023-05-02T12:29:03.794Z,6.53
2023-05-02T12:31:33.281Z,6.17
2023-05-02T12:34:02.145Z,9.13
2023-05-02T12:36:31.668Z,3.63
2023-05-02T12:39:02.224Z,5.20
2023-05-02T12:41:37.773Z,6.97
2023-05-02T12:44:08.146Z,4.20
2023-05-02T12:46:38.152Z,3.23
2023-05-02T12:49:09.635Z,3.20
2023-05-02T12:51:41.312Z,3.17
2023-05-02T12:54:21.508Z,2.13
2023-05-02T12:56:53.440Z,5.53
2023-05-02T12:59:31.124Z,2.93
2023-05-02T13:02:02.477Z,1.73
2023-05-02T13:04:40.795Z,5.70
2023-05-02T13:07:11.806Z,2.17
2023-05-02T13:09:41.193Z,2.60
2023-05-02T13:12:13.723Z,2.40
2023-05-02T13:14:43.635Z,3.10
2023-05-02T13:17:12.894Z,1.83
2023-05-02T13:20:00.992Z,2.10
2023-05-02T13:22:32.020Z,2.20
2023-05-02T13:25:01.315Z,1.33
2023-05-02T13:27:32.277Z,1.90
2023-05-02T13:30:04.186Z,3.00
2023-05-02T13:32:36.735Z,1.60
2023-05-02T13:35:06.617Z,1.20
2023-05-02T13:37:36.228Z,1.90
2023-05-02T13:40:06.008Z,1.87
2023-05-02T13:42:37.450Z,2.37
2023-05-02T13:45:10.293Z,2.60
2023-05-02T13:47:39.542Z,1.30
2023-05-02T13:50:13.130Z,1.10
2023-05-02T13:52:43.168Z,2.80
2023-05-02T13:55:13.313Z,1.53
2023-05-02T13:57:44.166Z,1.50
2023-05-02T14:00:16.274Z,2.63
2023-05-02T14:02:46.963Z,2.20
2023-05-02T14:05:16.038Z,1.30
2023-05-02T14:07:47.119Z,1.43
2023-05-02T14:10:17.120Z,1.27
2023-05-02T14:12:48.660Z,2.13
2023-05-02T14:15:19.176Z,1.30
2023-05-02T14:17:49.131Z,1.97
2023-05-02T14:20:18.873Z,1.47
2023-05-02T14:22:49.411Z,1.70
2023-05-02T14:25:21.160Z,1.50
2023-05-02T14:27:53.068Z,1.63
2023-05-02T14:30:23.411Z,1.67
2023-05-02T14:32:54.683Z,1.97
2023-05-02T14:35:26.452Z,2.13
2023-05-02T14:37:56.023Z,2.10
2023-05-02T14:40:25.003Z,1.30
2023-05-02T14:42:55.705Z,2.37
2023-05-02T14:45:25.337Z,2.20
2023-05-02T14:47:56.607Z,2.63
2023-05-02T14:50:26.998Z,2.00
2023-05-02T14:52:57.626Z,3.03
2023-05-02T14:55:27.141Z,4.73
2023-05-02T14:57:59.535Z,2.93
2023-05-02T15:00:28.949Z,3.90
2023-05-02T15:02:58.394Z,2.53
2023-05-02T15:05:29.459Z,2.73
2023-05-02T15:07:59.612Z,2.37
2023-05-02T15:10:29.192Z,2.90
2023-05-02T15:13:01.669Z,4.67
2023-05-02T15:15:31.774Z,6.27
2023-05-02T15:18:01.990Z,2.63
2023-05-02T15:20:31.383Z,2.13
2023-05-02T15:23:03.628Z,6.30
2023-05-02T15:25:34.402Z,3.17
2023-05-02T15:28:06.307Z,2.30
2023-05-02T15:30:36.063Z,2.27
2023-05-02T15:33:05.748Z,2.83
2023-05-02T15:35:35.818Z,6.80
2023-05-02T15:38:04.781Z,4.00
2023-05-02T15:40:34.063Z,2.20
2023-05-02T15:43:05.973Z,3.97
2023-05-02T15:45:36.822Z,2.40
2023-05-02T15:48:06.091Z,2.70
2023-05-02T15:50:35.363Z,3.83
2023-05-02T15:53:04.845Z,2.63
2023-05-02T15:55:35.981Z,2.60
2023-05-02T15:58:06.262Z,4.10
2023-05-02T16:00:35.675Z,5.17
2023-05-02T16:03:05.391Z,3.40
2023-05-02T16:05:35.131Z,3.00
2023-05-02T16:08:04.303Z,7.60
2023-05-02T16:10:33.989Z,6.23
2023-05-02T16:13:03.379Z,5.00
2023-05-02T16:15:33.218Z,3.90
2023-05-02T16:18:02.696Z,4.23
2023-05-02T16:20:34.547Z,4.90
2023-05-02T16:23:05.375Z,5.53
2023-05-02T16:25:35.686Z,4.63
2023-05-02T16:28:05.719Z,3.57
2023-05-02T16:30:38.999Z,7.70
2023-05-02T16:33:08.248Z,4.30
2023-05-02T16:35:38.111Z,4.27
2023-05-02T16:38:07.800Z,3.73
2023-05-02T16:40:37.706Z,5.87
2023-05-02T16:43:09.460Z,4.80
2023-05-02T16:45:40.354Z,5.10
2023-05-02T16:48:09.661Z,3.60
2023-05-02T16:50:39.093Z,5.83
2023-05-02T16:53:08.656Z,10.37
2023-05-02T16:55:39.703Z,5.40
2023-05-02T16:58:09.027Z,7.43
2023-05-02T17:00:40.985Z,8.33
2023-05-02T17:03:10.488Z,17.63
2023-05-02T17:05:39.494Z,5.23
2023-05-02T17:08:09.856Z,4.50
2023-05-02T17:10:40.404Z,5.90
2023-05-02T17:13:09.921Z,7.83
2023-05-02T17:15:40.690Z,5.43
2023-05-02T17:18:10.244Z,6.60
2023-05-02T17:20:39.931Z,6.27
2023-05-02T17:23:09.856Z,7.70
2023-05-02T17:25:40.380Z,4.37
2023-05-02T17:28:09.915Z,11.80
2023-05-02T17:30:41.390Z,8.23
2023-05-02T17:33:11.749Z,4.77
2023-05-02T17:35:40.700Z,8.53
2023-05-02T17:38:10.713Z,6.27
2023-05-02T17:40:39.091Z,4.30
2023-05-02T17:43:08.618Z,10.10
2023-05-02T17:45:40.146Z,6.47
2023-05-02T17:48:11.343Z,11.07
2023-05-02T17:50:41.179Z,9.40
2023-05-02T17:53:10.674Z,20.30
2023-05-02T17:55:40.744Z,5.47
2023-05-02T17:58:10.068Z,7.50
2023-05-02T18:00:40.436Z,6.80
2023-05-02T18:03:11.348Z,14.00
2023-05-02T18:05:41.168Z,15.37
2023-05-02T18:08:10.594Z,10.23
2023-05-02T18:10:41.179Z,12.77
2023-05-02T18:13:10.486Z,5.30
2023-05-02T18:15:39.992Z,5.70
2023-05-02T18:18:11.540Z,8.43
2023-05-02T18:20:40.996Z,6.50
2023-05-02T18:23:09.897Z,4.27
2023-05-02T18:25:39.247Z,4.60
2023-05-02T18:28:08.231Z,9.60
2023-05-02T18:30:39.099Z,6.47
2023-05-02T18:33:10.084Z,8.23
2023-05-02T18:35:39.045Z,6.93
2023-05-02T18:38:09.133Z,8.50
2023-05-02T18:40:39.177Z,5.50
2023-05-02T18:43:08.622Z,6.97
2023-05-02T18:45:39.893Z,5.80
2023-05-02T18:48:10.412Z,8.37
2023-05-02T18:50:40.994Z,6.40
2023-05-02T18:53:10.195Z,6.27
2023-05-02T18:55:40.282Z,9.33
2023-05-02T18:58:10.214Z,10.10
2023-05-02T19:00:40.148Z,6.13
2023-05-02T19:03:11.146Z,9.80
2023-05-02T19:05:42.835Z,7.73
2023-05-02T19:08:12.030Z,9.93
2023-05-02T19:10:41.451Z,5.27
2023-05-02T19:13:10.975Z,7.70
2023-05-02T19:15:40.066Z,6.80
2023-05-02T19:18:11.014Z,12.53
2023-05-02T19:20:41.959Z,6.07
2023-05-02T19:23:18.892Z,5.80
2023-05-02T19:25:50.070Z,4.07
2023-05-02T19:28:20.401Z,4.47
2023-05-02T19:30:49.305Z,5.80
2023-05-02T19:33:20.919Z,7.10
2023-05-02T19:35:49.899Z,8.10
2023-05-02T19:38:19.501Z,9.33
2023-05-02T19:40:49.998Z,9.10
2023-05-02T19:43:19.441Z,5.90
2023-05-02T19:45:49.063Z,15.20
2023-05-02T19:48:19.462Z,5.53
2023-05-02T19:50:47.864Z,4.97
2023-05-02T19:53:19.116Z,5.90
2023-05-02T19:55:49.604Z,4.80
2023-05-02T19:58:20.197Z,8.90
2023-05-02T20:00:50.257Z,8.43
2023-05-02T20:03:22.312Z,7.50
2023-05-02T20:05:51.404Z,7.60
2023-05-02T20:08:22.862Z,11.07
2023-05-02T20:10:52.860Z,8.03
2023-05-02T20:13:21.964Z,8.43
2023-05-02T20:15:53.239Z,3.93
2023-05-02T20:18:23.679Z,14.10
2023-05-02T20:20:53.053Z,6.67
2023-05-02T20:23:23.180Z,10.23
2023-05-02T20:25:53.741Z,7.13
2023-05-02T20:28:23.490Z,12.13
2023-05-02T20:30:52.536Z,15.53
2023-05-02T20:33:27.518Z,5.73
2023-05-02T20:36:00.708Z,10.13
2023-05-02T20:38:30.674Z,9.93
2023-05-02T20:41:00.190Z,12.50
2023-05-02T20:43:29.629Z,5.30
2023-05-02T20:45:59.641Z,9.43
2023-05-02T20:48:31.860Z,11.00
2023-05-02T20:51:02.583Z,9.83
2023-05-02T20:53:32.099Z,7.87
2023-05-02T20:56:01.540Z,16.73
2023-05-02T20:58:31.454Z,6.70
2023-05-02T21:01:01.498Z,7.13
2023-05-02T21:03:37.196Z,7.57
2023-05-02T21:06:07.484Z,9.57
2023-05-02T21:08:37.065Z,17.47
2023-05-02T21:11:15.203Z,10.57
2023-05-02T21:13:46.176Z,12.27
2023-05-02T21:16:20.170Z,11.83
2023-05-02T21:18:51.072Z,8.00
2023-05-02T21:21:20.474Z,12.93
2023-05-02T21:23:51.058Z,9.13
2023-05-02T21:26:19.787Z,7.73
2023-05-02T21:28:48.223Z,5.73
2023-05-02T21:31:17.733Z,8.37
2023-05-02T21:33:47.558Z,10.27
2023-05-02T21:36:18.968Z,7.33
2023-05-02T21:38:50.981Z,5.83
2023-05-02T21:41:20.564Z,10.23
2023-05-02T21:43:49.495Z,10.10
2023-05-02T21:46:18.445Z,15.73
2023-05-02T21:48:47.877Z,6.13
2023-05-02T21:51:18.893Z,7.30
2023-05-02T21:53:48.280Z,9.07
2023-05-02T21:56:18.669Z,8.13
2023-05-02T21:58:49.690Z,6.23
2023-05-02T22:01:19.683Z,6.53
2023-05-02T22:03:49.827Z,8.43
2023-05-02T22:06:20.898Z,9.93
2023-05-02T22:08:51.494Z,6.70
2023-05-02T22:11:22.383Z,4.60
2023-05-02T22:13:52.956Z,6.20
2023-05-02T22:16:22.944Z,5.57
2023-05-02T22:18:52.516Z,10.80
2023-05-02T22:21:23.431Z,4.77
2023-05-02T22:23:51.830Z,7.50
2023-05-02T22:26:21.282Z,7.00
2023-05-02T22:28:50.985Z,5.80
2023-05-02T22:31:21.544Z,16.03
2023-05-02T22:33:50.684Z,7.57
2023-05-02T22:36:22.044Z,5.60
2023-05-02T22:38:52.477Z,13.33
2023-05-02T22:41:20.934Z,8.80
2023-05-02T22:43:51.006Z,7.20
2023-05-02T22:46:21.218Z,11.73
2023-05-02T22:48:53.075Z,7.67
2023-05-02T22:51:24.075Z,5.90
2023-05-02T22:53:54.734Z,8.63
2023-05-02T22:56:25.581Z,5.97
2023-05-02T22:58:56.246Z,7.00
2023-05-02T23:01:27.000Z,9.60
2023-05-02T23:03:58.238Z,8.53
2023-05-02T23:06:29.796Z,13.60
2023-05-02T23:08:59.925Z,7.57
2023-05-02T23:11:29.217Z,7.47
2023-05-02T23:14:00.291Z,7.00
2023-05-02T23:16:30.360Z,5.10
2023-05-02T23:18:59.928Z,4.67
2023-05-02T23:21:30.877Z,4.67
2023-05-02T23:24:01.871Z,9.00
2023-05-02T23:26:32.955Z,7.57
2023-05-02T23:29:03.135Z,8.33
2023-05-02T23:31:33.553Z,12.50
2023-05-02T23:34:05.096Z,8.13
2023-05-02T23:36:37.559Z,8.87
2023-05-02T23:39:06.501Z,7.73
2023-05-02T23:41:36.099Z,8.27
2023-05-02T23:44:06.188Z,6.50
2023-05-02T23:46:35.802Z,12.80
2023-05-02T23:49:05.407Z,8.37
2023-05-02T23:51:38.324Z,9.27
2023-05-02T23:54:07.968Z,7.73
2023-05-02T23:56:38.348Z,6.30
2023-05-02T23:59:08.960Z,8.20
